Time;durP1;ratioP1;P1;durP2;ratioP2;P2;SDS_P1;SDS_P2;PMS_P1;PMS_P2;Temp;Humidity;BMP_temperature;BMP_pressure;BME280_temperature;BME280_humidity;BME280_pressure;Samples;Min_cycle;Max_cycle;Signal;HPM_P1;HPM_P2
2021/08/14 00:01:15;;;;;;;;;;;17.50;90.60;;;17.39;79.26;101143.81;4991812;28;19926;-79
2021/08/14 00:03:42;;;;;;;;;;;17.50;90.20;;;17.39;79.23;101146.56;4991717;28;20012;-79
2021/08/14 00:06:11;;;;;;;;;;;17.40;90.60;;;17.41;79.19;101147.19;4991414;28;20000;-79
2021/08/14 00:08:38;;;;;;;;;;;17.40;90.60;;;17.40;79.16;101142.75;4991543;28;19932;-79
2021/08/14 00:11:05;;;;;;;;;;;17.40;90.50;;;17.38;78.92;101136.59;4990752;28;20529;-79
2021/08/14 00:13:34;;;;;;;;;;;17.40;90.10;;;17.38;79.09;101136.59;4991488;28;19930;-79
2021/08/14 00:16:01;;;;;;;;;;;17.40;90.50;;;17.33;78.95;101139.19;4991206;28;20028;-79
2021/08/14 00:18:28;;;;;;;;;;;17.30;90.50;;;17.31;79.10;101141.31;4991361;28;19929;-79
2021/08/14 00:20:55;;;;;;;;;;;17.30;90.50;;;17.30;79.31;101134.94;4991555;28;20405;-79
2021/08/14 00:23:22;;;;;;;;;;;17.30;90.60;;;17.26;79.44;101139.19;4991515;28;20406;-79
2021/08/14 00:28:17;;;;;;;;;;;17.30;90.70;;;17.25;79.56;101123.75;4971727;28;19929;-91
2021/08/14 00:30:45;;;;;;;;;;;17.30;90.70;;;17.24;79.68;101127.53;4990528;28;20649;-92
2021/08/14 00:33:12;;;;;;;;;;;17.30;91.10;;;17.26;79.64;101132.84;4989321;28;19957;-92
2021/08/14 00:35:39;;;;;;;;;;;17.30;91.10;;;17.22;79.51;101126.06;4973615;28;19930;-92
2021/08/14 00:38:06;;;;;;;;;;;17.30;91.10;;;17.23;79.73;101133.25;4954018;28;20025;-90
2021/08/14 00:40:33;;;;;;;;;;;17.30;90.90;;;17.19;79.73;101128.19;4953931;28;19969;-92
2021/08/14 00:43:02;;;;;;;;;;;17.20;90.90;;;17.16;79.84;101131.34;4954392;28;20112;-92
2021/08/14 00:45:29;;;;;;;;;;;17.20;90.80;;;17.15;79.72;101126.06;4971394;28;19969;-91
2021/08/14 00:47:58;;;;;;;;;;;17.20;90.50;;;17.15;79.45;101121.44;4960570;28;20029;-92
2021/08/14 00:50:25;;;;;;;;;;;17.20;90.60;;;17.15;79.55;101115.94;4971313;28;20339;-91
2021/08/14 00:52:52;;;;;;;;;;;17.20;90.60;;;17.16;79.75;101114.84;4969969;28;19937;-91
2021/08/14 00:55:19;;;;;;;;;;;17.20;90.80;;;17.17;79.60;101108.31;4971344;28;19973;-89
2021/08/14 00:57:46;;;;;;;;;;;17.10;90.90;;;17.16;79.78;101100.25;4971106;28;19930;-88
2021/08/14 01:00:14;;;;;;;;;;;17.10;91.30;;;17.14;79.57;101105.97;4969928;28;19949;-90
2021/08/14 01:02:41;;;;;;;;;;;17.10;91.20;;;17.11;79.80;101106.38;4970645;28;20029;-89
2021/08/14 01:05:11;;;;;;;;;;;17.10;91.20;;;17.07;79.82;101099.63;4953900;28;20365;-89
2021/08/14 01:07:38;;;;;;;;;;;17.10;91.00;;;17.04;79.85;101093.72;4970902;28;19984;-88
2021/08/14 01:10:06;;;;;;;;;;;17.10;91.20;;;17.02;79.89;101093.94;4970031;28;20307;-89
2021/08/14 01:12:33;;;;;;;;;;;17.00;91.00;;;17.00;79.98;101096.03;4953503;28;19930;-90
2021/08/14 01:15:00;;;;;;;;;;;17.00;90.90;;;16.98;79.67;101095.41;4971232;28;20106;-88
2021/08/14 01:17:28;;;;;;;;;;;17.00;91.00;;;16.96;79.79;101094.78;4971082;28;19934;-88
2021/08/14 01:19:55;;;;;;;;;;;17.00;91.00;;;16.97;79.85;101090.97;4952939;28;19962;-90
2021/08/14 01:22:24;;;;;;;;;;;17.00;91.20;;;16.97;79.54;101097.31;4969531;28;20391;-88
2021/08/14 01:24:51;;;;;;;;;;;16.90;90.90;;;16.95;79.47;101095.84;4969409;28;19926;-90
2021/08/14 01:27:19;;;;;;;;;;;16.90;91.20;;;16.94;79.49;101105.13;4965990;28;19986;-88
2021/08/14 01:29:46;;;;;;;;;;;16.90;91.20;;;16.93;79.42;101109.81;4951836;29;19948;-89
2021/08/14 01:32:13;;;;;;;;;;;16.90;91.20;;;16.95;79.33;101106.84;4950484;29;20135;-90
2021/08/14 01:34:42;;;;;;;;;;;16.90;91.20;;;16.89;79.57;101096.72;4933679;29;20311;-88
2021/08/14 01:37:09;;;;;;;;;;;16.90;91.20;;;16.89;79.42;101100.28;4966083;28;20013;-89
2021/08/14 01:39:37;;;;;;;;;;;16.80;91.30;;;16.88;79.63;101095.00;4966276;28;20418;-89
2021/08/14 01:42:05;;;;;;;;;;;16.80;91.50;;;16.89;79.27;101099.47;4934238;29;19926;-90
2021/08/14 01:44:35;;;;;;;;;;;16.80;91.30;;;16.82;79.64;101093.94;4950112;29;19965;-88
2021/08/14 01:47:02;;;;;;;;;;;16.80;91.40;;;16.83;79.61;101089.28;4951081;29;19978;-88
2021/08/14 01:49:29;;;;;;;;;;;16.80;91.40;;;16.80;79.76;101087.78;4950177;29;20040;-88
2021/08/14 01:51:56;;;;;;;;;;;16.80;91.50;;;16.80;79.71;101091.38;4966123;28;20045;-88
2021/08/14 01:54:24;;;;;;;;;;;16.80;91.50;;;16.80;79.64;101088.63;4949933;29;19931;-88
2021/08/14 01:56:51;;;;;;;;;;;16.80;91.60;;;16.77;80.02;101085.44;4949100;29;20395;-89
2021/08/14 01:59:18;;;;;;;;;;;16.80;91.90;;;16.76;80.47;101084.59;4950140;29;19931;-88
2021/08/14 02:01:47;;;;;;;;;;;16.80;92.30;;;16.77;80.75;101086.31;4934090;29;19930;-88
2021/08/14 02:04:14;;;;;;;;;;;16.80;92.40;;;16.77;81.04;101086.31;4950167;29;20037;-89
2021/08/14 02:06:41;;;;;;;;;;;16.80;92.40;;;16.78;81.15;101081.66;4933771;29;20048;-92
2021/08/14 02:09:08;;;;;;;;;;;16.90;92.50;;;16.76;80.79;101084.59;4934165;29;19974;-90
2021/08/14 02:11:37;;;;;;;;;;;16.90;92.20;;;16.75;81.13;101082.06;4933892;29;19930;-91
2021/08/14 02:14:05;;;;;;;;;;;16.90;92.00;;;16.75;81.05;101085.69;4949840;29;20379;-92
2021/08/14 02:16:33;;;;;;;;;;;16.90;91.90;;;16.75;80.80;101077.44;4950887;29;20455;-91
2021/08/14 02:19:02;;;;;;;;;;;16.90;92.00;;;16.77;80.62;101075.31;4949902;29;19927;-91
2021/08/14 02:21:29;;;;;;;;;;;16.80;91.60;;;16.74;80.28;101081.22;4949857;29;19937;-91
2021/08/14 02:23:57;;;;;;;;;;;16.80;91.80;;;16.74;80.56;101072.97;4965179;28;19926;-90
2021/08/14 02:26:25;;;;;;;;;;;16.80;91.90;;;16.72;80.50;101075.09;4937755;28;19926;-90
2021/08/14 02:28:52;;;;;;;;;;;16.80;91.80;;;16.70;80.48;101079.13;4969836;28;20470;-91
2021/08/14 02:31:20;;;;;;;;;;;16.70;92.00;;;16.68;80.69;101075.72;4952716;28;19961;-92
2021/08/14 02:33:47;;;;;;;;;;;16.70;92.10;;;16.66;80.47;101081.44;4969145;28;19932;-91
2021/08/14 02:36:15;;;;;;;;;;;16.70;91.80;;;16.66;80.53;101075.94;4968801;28;20017;-91
2021/08/14 02:38:42;;;;;;;;;;;16.70;91.80;;;16.66;80.47;101073.19;4967595;28;20033;-92
2021/08/14 02:41:09;;;;;;;;;;;16.70;91.80;;;16.66;80.75;101073.19;4952839;28;19932;-91
2021/08/14 02:43:37;;;;;;;;;;;16.60;91.90;;;16.63;80.44;101068.13;4970117;28;19973;-91
2021/08/14 02:46:04;;;;;;;;;;;16.60;91.90;;;16.60;80.48;101063.03;4952467;28;20406;-90
2021/08/14 02:48:32;;;;;;;;;;;16.60;91.90;;;16.60;80.57;101057.53;4952668;28;20399;-92
2021/08/14 02:50:59;;;;;;;;;;;16.60;91.90;;;16.57;80.52;101057.97;4968817;28;20402;-90
2021/08/14 02:53:28;;;;;;;;;;;16.60;92.00;;;16.53;80.76;101056.72;4968697;28;19930;-91
2021/08/14 02:55:55;;;;;;;;;;;16.60;92.00;;;16.51;80.64;101056.91;4967715;28;20029;-90
2021/08/14 02:58:22;;;;;;;;;;;16.60;92.00;;;16.52;80.54;101049.50;4952635;28;19990;-90
2021/08/14 03:00:49;;;;;;;;;;;16.50;92.40;;;16.51;80.77;101058.81;4952546;28;19936;-91
2021/08/14 03:03:17;;;;;;;;;;;16.50;92.30;;;16.50;81.00;101060.69;4968832;28;19973;-91
2021/08/14 03:05:44;;;;;;;;;;;16.50;92.40;;;16.51;80.63;101065.16;4952660;28;19937;-91
2021/08/14 03:08:11;;;;;;;;;;;16.50;92.40;;;16.50;80.76;101065.34;4968893;28;19930;-90
2021/08/14 03:10:40;;;;;;;;;;;16.50;92.50;;;16.49;80.96;101063.69;4972177;28;19972;-92
2021/08/14 03:13:07;;;;;;;;;;;16.50;92.60;;;16.48;81.04;101053.75;4972035;28;19926;-91
2021/08/14 03:15:34;;;;;;;;;;;16.50;92.50;;;16.49;81.12;101059.03;4973483;28;19930;-92
2021/08/14 03:18:02;;;;;;;;;;;16.50;92.70;;;16.50;81.03;101054.38;4971740;28;20461;-91
2021/08/14 03:20:29;;;;;;;;;;;16.50;92.80;;;16.48;81.20;101064.72;4971937;28;19937;-91
2021/08/14 03:22:56;;;;;;;;;;;16.50;93.00;;;16.45;81.43;101063.25;4971891;28;19926;-91
2021/08/14 03:25:23;;;;;;;;;;;16.50;93.10;;;16.43;81.39;101062.63;4968707;28;20169;-91
2021/08/14 03:27:52;;;;;;;;;;;16.50;93.10;;;16.41;81.48;101065.56;4952116;29;19961;-90
2021/08/14 03:30:20;;;;;;;;;;;16.50;93.00;;;16.45;81.67;101059.63;4952488;29;20099;-92
2021/08/14 03:32:47;;;;;;;;;;;16.50;93.00;;;16.42;81.53;101056.25;4952404;29;20017;-92
2021/08/14 03:35:15;;;;;;;;;;;16.50;93.10;;;16.41;81.70;101057.34;4952319;29;19937;-91
2021/08/14 03:37:42;;;;;;;;;;;16.50;93.10;;;16.42;81.54;101064.50;4952058;29;19982;-91
2021/08/14 03:40:11;;;;;;;;;;;16.50;93.20;;;16.39;81.82;101062.19;4953905;29;19930;-90
2021/08/14 03:42:39;;;;;;;;;;;16.50;93.20;;;16.40;82.21;101063.88;4967884;28;19953;-91
2021/08/14 03:45:08;;;;;;;;;;;16.50;93.30;;;16.40;82.04;101069.38;4955355;28;19957;-91
2021/08/14 03:47:35;;;;;;;;;;;16.50;93.60;;;16.42;82.01;101063.66;4971030;28;20269;-91
2021/08/14 03:50:03;;;;;;;;;;;16.50;93.40;;;16.42;82.07;101056.25;4971250;28;19930;-91
2021/08/14 03:52:30;;;;;;;;;;;16.50;93.40;;;16.41;82.08;101051.84;4972645;28;19961;-92
2021/08/14 03:54:57;;;;;;;;;;;16.50;93.40;;;16.42;82.05;101056.25;4971315;28;19958;-92
2021/08/14 03:57:26;;;;;;;;;;;16.50;93.40;;;16.42;82.85;101050.75;4970973;28;19972;-92
2021/08/14 03:59:53;;;;;;;;;;;16.50;93.60;;;16.43;82.49;101059.88;4970326;28;20291;-93
2021/08/14 04:02:21;;;;;;;;;;;16.50;93.60;;;16.41;82.53;101059.22;4971105;28;20009;-91
2021/08/14 04:04:48;;;;;;;;;;;16.60;93.60;;;16.42;82.81;101063.66;4972421;28;20021;-91
2021/08/14 04:07:15;;;;;;;;;;;16.60;93.70;;;16.44;82.90;101052.47;4972215;28;20036;-91
2021/08/14 04:09:42;;;;;;;;;;;16.60;93.80;;;16.44;82.88;101049.72;4971517;28;19992;-91
2021/08/14 04:12:10;;;;;;;;;;;16.60;93.90;;;16.42;82.97;101053.50;4971389;28;19965;-92
2021/08/14 04:14:37;;;;;;;;;;;16.60;94.00;;;16.43;83.16;101051.63;4970557;28;19961;-91
2021/08/14 04:17:05;;;;;;;;;;;16.60;93.90;;;16.40;83.47;101066.63;4970546;28;19972;-91
2021/08/14 04:19:33;;;;;;;;;;;16.60;93.80;;;16.40;83.50;101054.78;4954636;28;19965;-91
2021/08/14 04:22:00;;;;;;;;;;;16.60;93.80;;;16.40;83.34;101066.63;4970975;28;20339;-90
2021/08/14 04:24:28;;;;;;;;;;;16.60;93.80;;;16.37;83.55;101058.81;4954715;28;19934;-91
2021/08/14 04:26:55;;;;;;;;;;;16.70;93.80;;;16.40;83.46;101074.03;4970364;28;19976;-91
2021/08/14 04:29:22;;;;;;;;;;;16.70;94.00;;;16.45;83.33;101067.88;4972091;28;19930;-91
2021/08/14 04:31:49;;;;;;;;;;;16.70;93.90;;;16.42;83.64;101070.00;4969258;28;19962;-90
2021/08/14 04:34:16;;;;;;;;;;;16.70;93.70;;;16.45;83.65;101060.50;4954048;28;19926;-90
2021/08/14 04:36:45;;;;;;;;;;;16.70;93.80;;;16.45;83.75;101066.00;4954043;28;19930;-91
2021/08/14 04:39:12;;;;;;;;;;;16.80;93.70;;;16.44;83.73;101057.97;4970236;28;19973;-91
2021/08/14 04:41:39;;;;;;;;;;;16.80;93.60;;;16.42;83.84;101056.25;4954450;28;20387;-91
2021/08/14 04:44:06;;;;;;;;;;;16.80;93.40;;;16.44;83.89;101064.31;4970529;28;19937;-92
2021/08/14 04:46:33;;;;;;;;;;;16.90;93.40;;;16.42;84.06;101061.75;4954010;28;19970;-92
2021/08/14 04:49:00;;;;;;;;;;;16.80;93.30;;;16.46;84.07;101059.44;4954285;28;20375;-91
2021/08/14 04:51:27;;;;;;;;;;;16.90;93.40;;;16.48;84.25;101059.22;4971676;28;19992;-90
2021/08/14 04:53:56;;;;;;;;;;;16.90;93.50;;;16.50;84.13;101057.13;4971589;28;20749;-91
2021/08/14 04:56:23;;;;;;;;;;;17.00;93.30;;;16.51;84.22;101053.34;4953703;28;20309;-91
2021/08/14 04:58:51;;;;;;;;;;;17.00;93.40;;;16.49;84.71;101050.78;4971466;28;20029;-91
2021/08/14 05:01:18;;;;;;;;;;;17.00;93.30;;;16.52;84.59;101049.50;4971359;28;20024;-90
2021/08/14 05:03:45;;;;;;;;;;;17.10;93.20;;;16.52;84.80;101057.75;4971333;28;19977;-91
2021/08/14 05:06:12;;;;;;;;;;;17.10;93.20;;;16.52;84.88;101060.50;4970217;28;19973;-92
2021/08/14 05:08:39;;;;;;;;;;;17.20;93.10;;;16.58;84.93;101054.16;4970070;28;19930;-91
2021/08/14 05:11:08;;;;;;;;;;;17.20;93.00;;;16.61;84.66;101070.22;4969916;28;19961;-91
2021/08/14 05:13:35;;;;;;;;;;;17.30;93.10;;;16.63;84.82;101061.78;4969882;28;19937;-91
2021/08/14 05:16:02;;;;;;;;;;;17.20;92.90;;;16.63;84.88;101065.38;4971038;28;19962;-91
2021/08/14 05:18:29;;;;;;;;;;;17.30;92.90;;;16.66;85.06;101051.22;4953784;28;19926;-89
2021/08/14 05:20:56;;;;;;;;;;;17.30;93.00;;;16.70;85.08;101063.47;4971272;28;19952;-87
2021/08/14 05:23:23;;;;;;;;;;;17.40;92.80;;;16.71;85.22;101059.66;4970349;28;20053;-84
2021/08/14 05:25:50;;;;;;;;;;;17.50;92.80;;;16.72;85.21;101066.00;4970677;28;19972;-90
2021/08/14 05:28:21;;;;;;;;;;;17.50;92.60;;;16.70;85.92;101062.63;4950093;29;20033;-88
2021/08/14 05:30:48;;;;;;;;;;;17.60;92.50;;;16.74;85.61;101058.41;4949887;28;19930;-86
2021/08/14 05:33:15;;;;;;;;;;;17.60;92.30;;;16.75;85.43;101049.94;4949891;29;19966;-88
2021/08/14 05:35:42;;;;;;;;;;;17.60;92.20;;;16.76;85.72;101062.63;4950407;29;19926;-87
2021/08/14 05:38:09;;;;;;;;;;;17.70;92.20;;;16.83;85.82;101062.66;4951206;29;20017;-88
2021/08/14 05:40:36;;;;;;;;;;;17.80;92.10;;;16.85;85.77;101062.41;4950850;28;20029;-88
2021/08/14 05:43:04;;;;;;;;;;;17.80;92.10;;;16.89;85.63;101066.47;4934218;29;20302;-87
2021/08/14 05:45:33;;;;;;;;;;;17.90;91.90;;;16.93;85.70;101062.22;4951590;29;19937;-87
2021/08/14 05:48:03;;;;;;;;;;;17.90;91.60;;;16.95;85.96;101065.59;4951212;29;20017;-88
2021/08/14 05:50:30;;;;;;;;;;;18.00;91.40;;;16.99;86.06;101053.94;4951625;29;19933;-87
2021/08/14 05:52:57;;;;;;;;;;;18.10;91.20;;;16.98;86.27;101055.03;4951289;29;19993;-84
2021/08/14 05:55:24;;;;;;;;;;;18.10;91.00;;;17.03;86.38;101062.63;4949255;29;19931;-84
2021/08/14 05:57:53;;;;;;;;;;;18.20;91.00;;;17.07;85.99;101055.63;4950989;29;19934;-85
2021/08/14 06:00:21;;;;;;;;;;;18.30;91.00;;;17.12;86.21;101055.00;4951254;29;20500;-80
2021/08/14 06:02:49;;;;;;;;;;;18.30;90.60;;;17.15;86.32;101052.69;4951128;29;20299;-83
2021/08/14 06:05:16;;;;;;;;;;;18.40;90.70;;;17.19;86.22;101048.44;4949851;29;20053;-83
2021/08/14 06:07:43;;;;;;;;;;;18.50;90.40;;;17.25;86.35;101045.84;4950874;29;19988;-83
2021/08/14 06:10:12;;;;;;;;;;;18.60;89.70;;;17.28;86.20;101050.94;4951210;29;20028;-83
2021/08/14 06:12:38;;;;;;;;;;;18.70;89.40;;;17.32;86.32;101054.94;4950428;28;19931;-82
2021/08/14 06:15:07;;;;;;;;;;;18.80;89.20;;;17.36;86.13;101056.19;4951047;29;20516;-83
2021/08/14 06:17:34;;;;;;;;;;;18.90;88.80;;;17.39;85.89;101056.59;4950742;29;20028;-83
2021/08/14 06:20:03;;;;;;;;;;;19.00;88.30;;;17.44;86.13;101064.22;4933909;29;19931;-87
2021/08/14 06:22:30;;;;;;;;;;;19.00;88.30;;;17.46;86.16;101064.84;4933605;29;20339;-87
2021/08/14 06:24:57;;;;;;;;;;;19.10;88.50;;;17.52;86.66;101061.22;4950925;29;20029;-87
2021/08/14 06:27:24;;;;;;;;;;;19.20;88.70;;;17.55;86.15;101063.56;4988434;23;19929;-90
2021/08/14 06:29:51;;;;;;;;;;;19.50;87.00;;;17.63;86.60;101061.59;5024421;28;19929;-90
2021/08/14 06:32:18;;;;;;;;;;;19.80;86.00;;;17.70;86.30;101051.41;5009032;28;19935;-91
2021/08/14 06:34:45;;;;;;;;;;;20.00;84.90;;;17.75;86.42;101054.38;5008867;28;20374;-91
2021/08/14 06:37:14;;;;;;;;;;;20.20;84.40;;;17.83;85.46;101056.84;5008836;28;20036;-90
2021/08/14 06:39:41;;;;;;;;;;;20.40;83.10;;;17.89;85.80;101061.50;5009256;28;19961;-91
2021/08/14 06:42:09;;;;;;;;;;;20.60;82.80;;;17.96;84.94;101062.31;5009280;28;19964;-90
2021/08/14 06:44:37;;;;;;;;;;;20.70;81.90;;;18.05;85.54;101059.31;5012645;28;20414;-90
2021/08/14 06:47:04;;;;;;;;;;;20.80;82.30;;;18.09;84.60;101060.56;5012594;28;19976;-89
2021/08/14 06:49:31;;;;;;;;;;;20.90;81.40;;;18.16;84.98;101056.72;5013025;28;19952;-90
2021/08/14 06:51:58;;;;;;;;;;;20.90;81.60;;;18.21;83.43;101057.97;5012964;28;20450;-90
2021/08/14 06:54:27;;;;;;;;;;;21.00;80.10;;;18.28;83.43;101048.56;5012711;28;19925;-90
2021/08/14 06:56:54;;;;;;;;;;;21.00;80.50;;;18.33;82.65;101045.13;5012528;28;19935;-90
2021/08/14 06:59:21;;;;;;;;;;;21.00;80.20;;;18.40;82.59;101039.59;5011424;28;20031;-90
2021/08/14 07:01:48;;;;;;;;;;;21.00;80.30;;;18.46;82.15;101033.19;5012561;28;19948;-88
2021/08/14 07:04:15;;;;;;;;;;;21.10;80.20;;;18.50;81.42;101034.41;5012549;28;20338;-87
2021/08/14 07:06:42;;;;;;;;;;;21.10;80.20;;;18.56;81.30;101028.00;5011691;28;20794;-88
2021/08/14 07:09:09;;;;;;;;;;;21.10;80.20;;;18.63;81.09;101031.53;5012512;28;19969;-88
2021/08/14 07:11:37;;;;;;;;;;;21.00;80.00;;;18.68;80.28;101039.16;5011212;28;20379;-92
2021/08/14 07:14:04;;;;;;;;;;;21.00;80.00;;;18.72;81.21;101041.22;5009149;28;19936;-91
2021/08/14 07:16:31;;;;;;;;;;;21.00;80.50;;;18.80;80.94;101039.25;5011825;28;20471;-91
2021/08/14 07:18:58;;;;;;;;;;;21.10;80.60;;;18.82;80.44;101039.91;5011735;28;20344;-90
2021/08/14 07:21:25;;;;;;;;;;;21.10;80.20;;;18.88;80.45;101041.75;5011112;28;20441;-91
2021/08/14 07:23:52;;;;;;;;;;;21.20;79.90;;;18.91;78.56;101041.31;5012539;28;19929;-91
2021/08/14 07:26:19;;;;;;;;;;;21.20;78.90;;;18.95;78.58;101048.06;5010929;28;20028;-92
2021/08/14 07:28:49;;;;;;;;;;;21.20;78.90;;;18.98;78.80;101047.56;5011992;28;19961;-91
2021/08/14 07:31:16;;;;;;;;;;;21.20;79.00;;;19.05;79.11;101048.34;5010617;28;19932;-91
2021/08/14 07:33:43;;;;;;;;;;;21.30;79.40;;;19.08;78.50;101053.44;5011861;28;19933;-91
2021/08/14 07:36:10;;;;;;;;;;;21.40;78.80;;;19.13;78.40;101047.22;5010363;28;19929;-91
2021/08/14 07:38:37;;;;;;;;;;;21.40;78.50;;;19.18;79.15;101052.06;5011332;28;23100;-91
2021/08/14 07:41:04;;;;;;;;;;;21.40;79.20;;;19.25;78.44;101044.56;5010355;28;19929;-91
2021/08/14 07:43:31;;;;;;;;;;;21.50;78.50;;;19.28;78.40;101041.34;5011455;28;20011;-91
2021/08/14 07:46:00;;;;;;;;;;;21.50;78.20;;;19.33;78.86;101049.78;5011554;28;20044;-87
2021/08/14 07:48:27;;;;;;;;;;;21.60;78.00;;;19.39;77.88;101050.78;5011539;28;19930;-90
2021/08/14 07:50:54;;;;;;;;;;;21.70;77.40;;;19.42;76.70;101042.88;5011784;28;19930;-88
2021/08/14 07:53:21;;;;;;;;;;;21.70;77.00;;;19.50;76.46;101037.03;5026801;28;20347;-85
2021/08/14 07:55:48;;;;;;;;;;;21.80;76.80;;;19.59;75.74;101042.25;5010156;28;19984;-85
2021/08/14 07:58:15;;;;;;;;;;;21.80;76.50;;;19.61;74.41;101032.66;5011485;28;19968;-86
2021/08/14 08:00:42;;;;;;;;;;;21.80;76.20;;;19.71;77.71;101041.22;5011481;28;20559;-82
2021/08/14 08:03:11;;;;;;;;;;;21.90;77.40;;;19.74;75.96;101042.72;5011430;28;20016;-82
2021/08/14 08:05:39;;;;;;;;;;;22.00;77.10;;;19.78;75.49;101041.19;5011382;28;20017;-83
2021/08/14 08:08:07;;;;;;;;;;;22.00;76.40;;;19.81;73.75;101037.13;5011025;28;19971;-83
2021/08/14 08:10:35;;;;;;;;;;;22.00;75.00;;;19.88;74.45;101049.75;5011197;28;19929;-83
2021/08/14 08:13:03;;;;;;;;;;;22.10;75.50;;;19.92;74.26;101045.44;5011205;28;19940;-82
2021/08/14 08:15:30;;;;;;;;;;;22.10;75.80;;;19.94;73.70;101042.44;5002523;28;19952;-83
2021/08/14 08:17:58;;;;;;;;;;;22.10;75.60;;;19.99;73.12;101050.03;4989867;28;20385;-83
2021/08/14 08:20:26;;;;;;;;;;;22.20;74.20;;;20.05;72.09;101040.81;4991529;28;19930;-84
2021/08/14 08:22:53;;;;;;;;;;;22.30;74.40;;;20.06;71.92;101036.97;4990193;28;19934;-83
2021/08/14 08:25:21;;;;;;;;;;;22.30;73.80;;;20.08;72.37;101051.38;4991497;28;20400;-83
2021/08/14 08:27:49;;;;;;;;;;;22.30;73.70;;;20.19;71.41;101039.53;4991068;28;19930;-83
2021/08/14 08:30:18;;;;;;;;;;;22.40;73.70;;;20.24;71.30;101031.38;4991414;28;20299;-84
2021/08/14 08:32:47;;;;;;;;;;;22.40;73.40;;;20.28;71.18;101040.06;4998556;28;19930;-84
2021/08/14 08:35:14;;;;;;;;;;;22.40;73.10;;;20.35;71.48;101039.94;5009462;28;20056;-83
2021/08/14 08:37:42;;;;;;;;;;;22.50;73.60;;;20.36;70.39;101042.47;5009001;28;19929;-84
2021/08/14 08:40:10;;;;;;;;;;;22.50;72.60;;;20.36;70.48;101047.16;5010224;28;19990;-90
2021/08/14 08:42:37;;;;;;;;;;;22.50;72.60;;;20.42;72.18;101049.81;5010674;28;20039;-84
2021/08/14 08:45:05;;;;;;;;;;;22.60;73.20;;;20.48;69.96;101051.59;5010580;28;19967;-84
2021/08/14 08:47:33;;;;;;;;;;;22.60;72.20;;;20.52;69.26;101043.69;5010198;28;19936;-88
2021/08/14 08:50:01;;;;;;;;;;;22.70;72.20;;;20.52;68.50;101035.38;5009646;28;19976;-84
2021/08/14 08:52:28;;;;;;;;;;;22.70;71.20;;;20.52;66.84;101029.84;5010604;28;20763;-85
2021/08/14 08:54:56;;;;;;;;;;;22.70;70.20;;;20.54;67.78;101024.94;5010749;28;20032;-87
2021/08/14 08:57:23;;;;;;;;;;;22.70;70.40;;;20.62;69.62;101029.31;5010305;28;19981;-90
2021/08/14 08:59:50;;;;;;;;;;;22.70;71.30;;;20.64;66.38;101030.75;5009208;28;19933;-90
2021/08/14 09:02:26;;;;;;;;;;;22.70;69.70;;;20.64;65.68;101028.00;5006637;28;20560;-91
2021/08/14 09:05:14;;;;;;;;;;;22.70;69.40;;;20.67;65.66;101027.50;5009018;28;19972;-90
2021/08/14 09:07:42;;;;;;;;;;;22.70;69.00;;;20.74;65.01;101023.81;5009355;28;20406;-90
2021/08/14 09:10:13;;;;;;;;;;;22.80;68.00;;;20.76;64.56;101024.41;5008345;28;20380;-90
2021/08/14 09:12:44;;;;;;;;;;;22.80;67.40;;;20.82;63.95;101015.13;5009766;28;20020;-90
2021/08/14 09:15:16;;;;;;;;;;;22.80;67.20;;;20.86;65.07;101019.09;5008309;28;19929;-91
2021/08/14 09:17:47;;;;;;;;;;;22.80;67.80;;;20.87;66.25;101015.25;5008467;28;20742;-87
2021/08/14 09:20:18;;;;;;;;;;;22.80;68.50;;;20.92;65.64;101023.66;4994567;28;19968;-88
2021/08/14 09:23:00;;;;;;;;;;;22.90;68.90;;;20.98;62.40;101022.72;4996005;28;19961;-86
2021/08/14 09:25:38;;;;;;;;;;;22.90;66.00;;;21.07;65.85;101021.25;5000207;28;19932;-92
2021/08/14 09:28:06;;;;;;;;;;;23.00;68.70;;;21.11;64.00;101009.69;4999932;28;20243;-93
2021/08/14 09:30:45;;;;;;;;;;;23.00;67.50;;;21.12;59.72;101015.00;4990565;28;19930;-93
2021/08/14 09:33:15;;;;;;;;;;;23.00;64.30;;;21.12;60.43;101016.94;4988235;28;19972;-93
2021/08/14 09:35:45;;;;;;;;;;;23.00;64.50;;;21.09;62.88;101013.56;4987459;28;21777;-92
2021/08/14 09:38:14;;;;;;;;;;;23.10;66.20;;;21.16;62.02;101004.28;4997388;28;19952;-92
2021/08/14 09:40:44;;;;;;;;;;;23.10;65.80;;;21.24;60.24;101014.97;4991709;28;19940;-92
2021/08/14 09:43:12;;;;;;;;;;;23.10;64.20;;;21.23;60.99;101008.59;5004804;28;19961;-93
2021/08/14 09:45:40;;;;;;;;;;;23.10;64.70;;;21.26;61.78;101010.88;4987447;28;20437;-93
2021/08/14 09:48:18;;;;;;;;;;;23.10;65.80;;;21.29;60.64;101009.56;5003792;28;19925;-90
2021/08/14 09:50:45;;;;;;;;;;;23.10;64.30;;;21.33;59.38;101004.38;5007009;28;20029;-89
2021/08/14 09:53:15;;;;;;;;;;;23.20;63.80;;;21.36;62.97;101012.16;5009810;28;19932;-89
2021/08/14 09:55:46;;;;;;;;;;;23.20;64.20;;;21.35;59.63;101004.97;5009043;28;20375;-92
2021/08/14 09:58:16;;;;;;;;;;;23.20;62.50;;;21.38;60.31;101004.47;5007047;28;20381;-85
2021/08/14 10:00:45;;;;;;;;;;;23.20;63.20;;;21.40;59.24;101008.69;5009235;28;19993;-82
2021/08/14 10:03:14;;;;;;;;;;;23.20;64.20;;;21.36;60.11;101001.09;5009468;28;19951;-86
2021/08/14 10:05:42;;;;;;;;;;;23.20;63.10;;;21.37;60.23;100997.25;5003916;28;19929;-85
2021/08/14 10:08:09;;;;;;;;;;;23.20;64.60;;;21.36;59.54;100998.31;5007140;28;19929;-86
2021/08/14 10:10:37;;;;;;;;;;;23.20;63.20;;;21.36;60.66;101001.97;5008404;28;20378;-85
2021/08/14 10:13:05;;;;;;;;;;;23.20;64.40;;;21.39;59.23;100990.38;5003648;28;20629;-85
2021/08/14 10:15:32;;;;;;;;;;;23.20;64.20;;;21.40;58.91;100994.84;5004317;28;19926;-86
2021/08/14 10:17:59;;;;;;;;;;;23.30;63.10;;;21.41;56.59;100990.97;5009737;28;19936;-85
2021/08/14 10:20:27;;;;;;;;;;;23.30;60.60;;;21.43;55.89;100986.03;4994665;28;19930;-86
2021/08/14 10:22:59;;;;;;;;;;;23.30;60.10;;;21.43;57.61;100983.25;4995384;28;20441;-85
2021/08/14 10:25:26;;;;;;;;;;;23.30;61.00;;;21.35;56.86;100978.13;5003534;28;19925;-85
2021/08/14 10:27:56;;;;;;;;;;;23.30;61.10;;;21.42;58.06;100976.06;4993232;28;20044;-86
2021/08/14 10:30:39;;;;;;;;;;;23.30;62.30;;;21.48;56.05;100966.78;4993280;28;19926;-85
2021/08/14 10:33:07;;;;;;;;;;;23.30;59.70;;;21.57;54.52;100974.69;4996800;28;20020;-86
2021/08/14 10:35:38;;;;;;;;;;;23.40;59.00;;;21.56;57.83;100973.88;5006858;28;20033;-85
2021/08/14 10:38:26;;;;;;;;;;;23.40;62.20;;;21.60;55.73;100979.75;5005254;28;20465;-86
2021/08/14 10:41:02;;;;;;;;;;;23.40;60.10;;;21.54;56.18;100973.28;5002148;28;19929;-85
2021/08/14 10:43:59;;;;;;;;;;;23.40;60.30;;;21.52;57.09;100972.69;5001744;28;19969;-85
2021/08/14 10:46:41;;;;;;;;;;;23.40;60.30;;;21.53;58.09;100973.50;5008414;28;19938;-85
2021/08/14 10:49:09;;;;;;;;;;;23.40;62.00;;;21.55;59.04;100977.72;5002706;28;19931;-86
2021/08/14 10:52:11;;;;;;;;;;;23.50;61.60;;;21.63;56.29;100965.41;5003474;28;20017;-85
2021/08/14 10:55:10;;;;;;;;;;;23.50;58.90;;;21.66;52.81;100967.69;5001039;28;20019;-86
2021/08/14 10:57:44;;;;;;;;;;;23.50;57.30;;;21.63;53.65;100973.72;5003197;28;20017;-85
2021/08/14 11:00:24;;;;;;;;;;;23.50;57.60;;;21.69;56.24;100971.91;5004307;28;19937;-86
2021/08/14 11:03:00;;;;;;;;;;;23.50;60.20;;;21.75;50.94;100973.69;5003408;28;19925;-86
2021/08/14 11:05:28;;;;;;;;;;;23.40;55.70;;;21.71;52.35;100965.00;5003069;28;20394;-86
2021/08/14 11:07:55;;;;;;;;;;;23.50;56.10;;;21.71;54.09;100956.69;4998984;28;20469;-87
2021/08/14 11:10:34;;;;;;;;;;;23.50;58.00;;;21.76;51.31;100956.81;5000512;28;19972;-86
2021/08/14 11:13:22;;;;;;;;;;;23.60;55.70;;;21.74;53.73;100956.22;4997478;28;20012;-87
2021/08/14 11:15:50;;;;;;;;;;;23.60;57.80;;;21.72;58.04;100961.13;4997219;28;20029;-84
2021/08/14 11:18:37;;;;;;;;;;;23.60;60.30;;;21.79;57.00;100956.28;5006663;28;20017;-83